Bowery Haven, Utah
Current Conditions -  °F | °C
As of 1:15 AM on Monday 24 Nov 2014 (Local Time) from KDTA Reporting Station
Clear Clear  
Wind Chill: 19°   Ceiling: Unl
Heat Index: 25°   Visibility: 10mi
Dew Point: 19°   Wind: 6mph
Humidity: 77%   Direction: 160°SSE
Pressure: 30.26"   Gusts: NA
Location:  38.7083°N, 111.729°W
Report Text: KDTA 240815Z AUTO 16005KT 10SM CLR M04/M07 A3026 RMK AO1 T10371072
Loading
Personal Weather Stations






























Interactive Weather Map New forecast layout! Learn more

10-Day Weather Forecast

Advertisements
Track Severe Weather on mobile